Time;durP1;ratioP1;P1;durP2;ratioP2;P2;SDS_P1;SDS_P2;PMS_P1;PMS_P2;Temp;Humidity;BMP_temperature;BMP_pressure;BME280_temperature;BME280_humidity;BME280_pressure;Samples;Min_cycle;Max_cycle;Signal;HPM_P1;HPM_P2
2022/04/04 00:00:07;;;;;;;0.70;0.03;;;22.10;27.90;;;;;;5113176;28;20122;-67
2022/04/04 00:02:33;;;;;;;0.25;0.10;;;22.10;27.80;;;;;;5114128;28;20052;-68
2022/04/04 00:04:59;;;;;;;0.20;0.08;;;22.10;27.80;;;;;;5114173;28;20044;-67
2022/04/04 00:07:25;;;;;;;0.20;0.10;;;22.00;27.90;;;;;;5113018;28;20119;-68
2022/04/04 00:09:51;;;;;;;0.93;0.13;;;22.00;28.00;;;;;;5112893;28;20503;-67
2022/04/04 00:12:17;;;;;;;0.20;0.10;;;21.80;28.00;;;;;;5112859;28;20043;-69
2022/04/04 00:14:43;;;;;;;1.02;0.15;;;21.80;28.00;;;;;;5112751;28;20044;-68
2022/04/04 00:17:11;;;;;;;0.30;0.10;;;21.80;28.00;;;;;;5112975;28;20052;-68
2022/04/04 00:19:37;;;;;;;0.57;0.10;;;21.90;28.00;;;;;;5112644;28;20506;-68
2022/04/04 00:22:03;;;;;;;0.57;0.10;;;22.00;27.90;;;;;;5112601;28;20077;-68
2022/04/04 00:24:29;;;;;;;1.38;0.65;;;22.10;27.80;;;;;;5112042;28;20062;-68
2022/04/04 00:26:54;;;;;;;0.43;0.30;;;22.20;27.70;;;;;;5112591;28;20475;-69
2022/04/04 00:29:20;;;;;;;1.52;0.10;;;22.20;27.60;;;;;;5113976;28;20028;-69
2022/04/04 00:31:52;;;;;;;0.45;0.10;;;22.20;27.60;;;;;;5112505;28;20520;-70
2022/04/04 00:34:18;;;;;;;0.70;0.10;;;22.20;27.60;;;;;;5112626;28;20043;-67
2022/04/04 00:36:43;;;;;;;0.63;0.10;;;22.30;27.60;;;;;;5112408;28;20043;-68
2022/04/04 00:39:11;;;;;;;0.28;0.00;;;22.30;27.60;;;;;;5112390;28;20039;-69
2022/04/04 00:41:37;;;;;;;0.57;0.10;;;22.30;27.50;;;;;;5112232;28;20069;-69
2022/04/04 00:44:03;;;;;;;0.43;0.10;;;22.40;27.50;;;;;;5113623;28;20043;-68
2022/04/04 00:46:29;;;;;;;0.47;0.10;;;22.50;27.40;;;;;;5112437;28;20040;-69
2022/04/04 00:48:55;;;;;;;0.30;0.10;;;22.50;27.40;;;;;;5112543;28;20387;-68
2022/04/04 00:51:21;;;;;;;0.20;0.03;;;22.60;27.40;;;;;;5112278;28;20681;-67
2022/04/04 00:53:47;;;;;;;0.30;0.05;;;22.60;27.30;;;;;;5113376;28;20035;-71
2022/04/04 00:56:13;;;;;;;0.20;0.05;;;22.70;27.30;;;;;;5112356;28;20035;-68
2022/04/04 00:58:39;;;;;;;0.38;0.10;;;22.70;27.30;;;;;;5111955;28;20036;-71
2022/04/04 01:01:05;;;;;;;0.80;0.10;;;22.70;27.20;;;;;;5111786;28;20182;-68
2022/04/04 01:03:31;;;;;;;0.60;0.10;;;22.80;27.20;;;;;;5112202;28;20500;-68
2022/04/04 01:05:59;;;;;;;0.63;0.10;;;22.80;27.10;;;;;;5111920;28;20074;-68
2022/04/04 01:08:25;;;;;;;0.52;0.20;;;22.90;27.20;;;;;;5111883;28;20036;-69
2022/04/04 01:10:51;;;;;;;0.20;0.10;;;22.80;27.10;;;;;;5111685;28;20036;-68
2022/04/04 01:13:17;;;;;;;0.65;0.03;;;22.90;27.10;;;;;;5111737;28;20039;-68
2022/04/04 01:15:43;;;;;;;0.40;0.08;;;23.00;27.10;;;;;;5112966;28;20039;-68
2022/04/04 01:18:10;;;;;;;0.28;0.10;;;22.90;27.00;;;;;;5095014;28;20116;-68
2022/04/04 01:20:36;;;;;;;0.40;0.10;;;23.00;27.00;;;;;;5111778;28;20425;-68
2022/04/04 01:23:04;;;;;;;0.90;0.13;;;23.10;27.00;;;;;;5111468;28;20067;-71
2022/04/04 01:25:32;;;;;;;1.25;0.10;;;23.10;26.90;;;;;;5111871;28;20040;-68
2022/04/04 01:27:59;;;;;;;0.88;0.10;;;23.10;26.90;;;;;;5111675;28;20047;-68
2022/04/04 01:30:26;;;;;;;0.47;0.20;;;23.10;26.80;;;;;;5111495;28;20039;-68
2022/04/04 01:32:53;;;;;;;0.65;0.10;;;23.20;26.90;;;;;;5111365;28;20483;-67
2022/04/04 01:35:20;;;;;;;0.95;0.10;;;23.20;27.40;;;;;;5094729;28;20118;-70
2022/04/04 01:37:47;;;;;;;0.57;0.10;;;23.20;26.80;;;;;;5112579;28;20376;-68
2022/04/04 01:40:15;;;;;;;0.50;0.10;;;23.30;27.40;;;;;;5111321;28;20044;-68
2022/04/04 01:42:45;;;;;;;0.28;0.10;;;23.30;26.70;;;;;;5112478;28;20535;-68
2022/04/04 01:45:11;;;;;;;0.17;0.05;;;23.30;26.70;;;;;;5111331;28;20035;-69
2022/04/04 01:47:37;;;;;;;0.70;0.10;;;23.40;26.70;;;;;;5112394;28;20055;-68
2022/04/04 01:50:04;;;;;;;0.43;0.10;;;23.40;26.70;;;;;;5111084;28;20052;-69
2022/04/04 01:52:30;;;;;;;0.20;0.08;;;23.40;26.70;;;;;;5111356;28;20043;-69
2022/04/04 01:54:55;;;;;;;0.25;0.08;;;23.40;26.70;;;;;;5112571;28;20395;-69
2022/04/04 01:57:21;;;;;;;0.40;0.10;;;23.40;26.70;;;;;;5111457;28;20043;-69
2022/04/04 01:59:47;;;;;;;0.30;0.10;;;23.40;26.60;;;;;;5111017;28;20483;-69
2022/04/04 02:02:13;;;;;;;0.30;0.10;;;23.50;26.60;;;;;;5110682;28;20054;-69
2022/04/04 02:04:38;;;;;;;0.93;0.10;;;23.50;26.60;;;;;;5111221;28;20044;-68
2022/04/04 02:07:06;;;;;;;0.32;0.05;;;23.50;26.60;;;;;;5111196;28;20058;-68
2022/04/04 02:09:32;;;;;;;0.50;0.10;;;23.60;26.60;;;;;;5111144;28;20047;-69
2022/04/04 02:11:58;;;;;;;0.30;0.10;;;23.60;26.50;;;;;;5111169;28;20070;-71
2022/04/04 02:14:23;;;;;;;0.38;0.10;;;23.60;26.50;;;;;;5109534;28;20043;-69
2022/04/04 02:16:49;;;;;;;0.22;0.10;;;23.70;26.50;;;;;;5110556;28;20038;-68
2022/04/04 02:19:18;;;;;;;0.68;0.10;;;23.70;26.40;;;;;;5112156;28;20034;-68
2022/04/04 02:21:44;;;;;;;0.77;0.10;;;23.80;26.40;;;;;;5111200;28;20062;-68
2022/04/04 02:24:11;;;;;;;0.50;0.10;;;23.90;26.30;;;;;;5110979;28;20043;-69
2022/04/04 02:26:37;;;;;;;0.55;0.10;;;24.00;26.20;;;;;;5111079;28;20043;-68
2022/04/04 02:29:03;;;;;;;1.65;0.10;;;24.20;26.10;;;;;;5110748;28;20517;-68
2022/04/04 02:31:31;;;;;;;0.30;0.20;;;24.30;26.00;;;;;;5110760;28;20056;-69
2022/04/04 02:33:57;;;;;;;0.43;0.10;;;24.40;26.00;;;;;;5111006;28;20040;-68
2022/04/04 02:36:22;;;;;;;0.10;0.10;;;24.50;25.90;;;;;;5111944;28;20440;-68
2022/04/04 02:38:49;;;;;;;0.93;0.10;;;24.60;25.80;;;;;;5110726;28;20039;-70
2022/04/04 02:41:15;;;;;;;0.77;0.10;;;24.80;25.80;;;;;;5110895;28;20126;-68
2022/04/04 02:43:41;;;;;;;0.20;0.00;;;24.80;25.60;;;;;;5110637;28;20119;-69
2022/04/04 02:46:08;;;;;;;0.35;0.10;;;24.90;25.50;;;;;;5110912;28;20044;-69
2022/04/04 02:48:35;;;;;;;1.02;0.10;;;25.00;25.50;;;;;;5112133;28;20470;-68
2022/04/04 02:51:00;;;;;;;0.35;0.10;;;25.10;25.40;;;;;;5114757;28;20047;-70
2022/04/04 02:53:26;;;;;;;1.45;0.10;;;25.20;25.30;;;;;;5114971;28;20440;-71
2022/04/04 02:58:37;;;;;;;0.43;0.08;;;25.40;25.30;;;;;;5113449;28;20475;-69
2022/04/04 03:01:03;;;;;;;0.80;0.10;;;25.50;25.30;;;;;;5113942;28;20126;-68
2022/04/04 03:03:29;;;;;;;0.22;0.00;;;25.50;25.20;;;;;;5114178;28;20047;-68
2022/04/04 03:05:55;;;;;;;0.10;0.10;;;25.60;25.10;;;;;;5115599;28;20032;-68
2022/04/04 03:08:21;;;;;;;1.05;0.10;;;25.70;25.10;;;;;;5113580;28;20039;-69
2022/04/04 03:10:47;;;;;;;0.32;0.10;;;25.70;25.10;;;;;;5115025;28;20044;-69
2022/04/04 03:13:13;;;;;;;0.57;0.10;;;25.80;25.00;;;;;;5114177;28;20130;-69
2022/04/04 03:15:39;;;;;;;0.88;0.10;;;25.80;24.90;;;;;;5114184;28;20035;-68
2022/04/04 03:18:05;;;;;;;0.47;0.00;;;25.90;24.90;;;;;;5115233;28;20402;-70
2022/04/04 03:20:32;;;;;;;0.10;0.00;;;25.90;24.90;;;;;;5114066;28;20043;-70
2022/04/04 03:22:58;;;;;;;1.55;0.20;;;26.10;24.90;;;;;;5115031;28;20126;-69
2022/04/04 03:25:24;;;;;;;1.15;0.10;;;26.10;24.90;;;;;;5113771;28;20503;-71
2022/04/04 03:27:54;;;;;;;1.25;0.10;;;26.10;24.80;;;;;;5113727;28;20063;-69
2022/04/04 03:30:23;;;;;;;0.82;0.05;;;26.20;24.80;;;;;;5113821;28;20035;-69
2022/04/04 03:32:49;;;;;;;0.40;0.10;;;26.30;24.80;;;;;;5113646;28;20039;-69
2022/04/04 03:35:17;;;;;;;0.20;0.08;;;26.30;24.70;;;;;;5114034;28;20083;-68
2022/04/04 03:37:46;;;;;;;0.68;0.10;;;26.30;24.70;;;;;;5113840;28;20046;-71
2022/04/04 03:40:13;;;;;;;0.20;0.10;;;26.40;24.70;;;;;;5113383;28;20123;-68
2022/04/04 03:42:40;;;;;;;1.30;0.28;;;26.40;24.60;;;;;;5113456;28;20042;-69
2022/04/04 03:45:12;;;;;;;1.35;0.00;;;26.50;24.70;;;;;;5113631;28;20043;-69
2022/04/04 03:47:39;;;;;;;0.40;0.13;;;26.50;24.70;;;;;;5114564;28;20039;-69
2022/04/04 03:50:07;;;;;;;1.20;0.57;;;26.60;24.60;;;;;;5114821;28;20473;-69
2022/04/04 03:52:34;;;;;;;0.30;0.00;;;26.60;24.60;;;;;;5113520;28;20043;-69
2022/04/04 03:55:00;;;;;;;0.65;0.10;;;26.60;24.60;;;;;;5113433;28;20043;-71
2022/04/04 03:57:27;;;;;;;0.43;0.20;;;26.60;24.50;;;;;;5113385;28;20130;-69
2022/04/04 03:59:53;;;;;;;1.17;0.10;;;26.60;24.50;;;;;;5113062;28;20050;-69
2022/04/04 04:02:19;;;;;;;0.30;0.00;;;26.70;24.50;;;;;;5112619;28;20043;-70
2022/04/04 04:04:45;;;;;;;0.63;0.10;;;26.70;24.50;;;;;;5114319;28;20093;-68
2022/04/04 04:07:15;;;;;;;0.90;0.10;;;26.70;24.50;;;;;;5112983;28;20040;-69
2022/04/04 04:09:42;;;;;;;0.30;0.10;;;26.70;24.50;;;;;;5113056;28;20045;-69
2022/04/04 04:12:09;;;;;;;0.75;0.10;;;26.80;24.50;;;;;;5113126;28;20390;-70
2022/04/04 04:14:35;;;;;;;0.90;0.10;;;26.80;24.50;;;;;;5112985;28;20043;-69
2022/04/04 04:17:01;;;;;;;0.90;0.20;;;26.80;24.40;;;;;;5112683;28;20043;-69
2022/04/04 04:22:13;;;;;;;0.47;0.10;;;26.90;24.40;;;;;;5112498;28;20055;-70
2022/04/04 04:24:39;;;;;;;0.95;0.10;;;26.90;24.40;;;;;;5112667;28;20534;-69
2022/04/04 04:27:05;;;;;;;0.68;0.10;;;26.90;24.40;;;;;;5112847;28;20189;-69
2022/04/04 04:29:30;;;;;;;0.15;0.10;;;27.00;24.40;;;;;;5112568;28;20035;-69
2022/04/04 04:31:56;;;;;;;1.05;0.10;;;26.90;24.40;;;;;;5114224;28;20122;-69
2022/04/04 04:34:22;;;;;;;1.13;0.10;;;27.00;24.40;;;;;;5113830;28;20204;-70
2022/04/04 04:36:48;;;;;;;0.75;0.15;;;27.00;24.40;;;;;;5112726;28;20136;-69
2022/04/04 04:39:13;;;;;;;0.50;0.10;;;27.10;24.40;;;;;;5112642;28;20471;-70
2022/04/04 04:41:39;;;;;;;0.60;0.10;;;27.10;24.40;;;;;;5112487;28;20535;-70
2022/04/04 04:44:05;;;;;;;0.50;0.10;;;27.10;24.40;;;;;;5113574;28;20035;-69
2022/04/04 04:46:31;;;;;;;0.90;0.10;;;27.10;24.30;;;;;;5113560;28;20498;-70
2022/04/04 04:48:57;;;;;;;0.82;0.10;;;27.20;24.40;;;;;;5112416;28;20043;-69
2022/04/04 04:51:24;;;;;;;0.63;0.10;;;27.20;24.40;;;;;;5112550;28;20031;-69
2022/04/04 04:53:49;;;;;;;0.60;0.10;;;27.20;24.40;;;;;;5113473;28;20040;-69
2022/04/04 04:56:15;;;;;;;1.13;0.15;;;27.20;24.30;;;;;;5113498;28;20087;-70
2022/04/04 04:58:41;;;;;;;0.55;0.10;;;27.30;24.30;;;;;;5112179;28;20036;-70
2022/04/04 05:01:06;;;;;;;0.88;0.22;;;27.30;24.20;;;;;;5111627;28;20516;-69
2022/04/04 05:03:33;;;;;;;0.40;0.10;;;27.40;24.30;;;;;;5111935;28;20055;-71
2022/04/04 05:05:59;;;;;;;0.50;0.10;;;27.40;24.20;;;;;;5112062;28;20043;-69
2022/04/04 05:08:25;;;;;;;0.50;0.10;;;27.40;24.20;;;;;;5111895;28;20397;-69
2022/04/04 05:10:52;;;;;;;1.25;0.30;;;27.40;24.20;;;;;;5111552;28;20046;-71
2022/04/04 05:13:18;;;;;;;1.00;0.10;;;27.40;24.10;;;;;;5111919;28;20403;-69
2022/04/04 05:15:45;;;;;;;3.95;0.10;;;27.40;24.10;;;;;;5111701;28;20554;-69
2022/04/04 05:18:11;;;;;;;0.40;0.10;;;27.50;24.20;;;;;;5111935;28;20043;-71
2022/04/04 05:20:36;;;;;;;0.40;0.05;;;27.50;24.20;;;;;;5111658;28;20376;-68
2022/04/04 05:23:02;;;;;;;0.70;0.10;;;27.60;24.20;;;;;;5111501;28;20035;-71
2022/04/04 05:25:28;;;;;;;0.68;0.10;;;27.50;24.10;;;;;;5111808;28;20043;-70
2022/04/04 05:27:55;;;;;;;0.93;0.10;;;27.60;24.20;;;;;;5112142;28;20425;-70
2022/04/04 05:30:21;;;;;;;0.63;0.10;;;27.60;24.10;;;;;;5111982;28;20038;-70
2022/04/04 05:32:47;;;;;;;1.58;0.10;;;27.60;24.10;;;;;;5111672;28;20047;-69
2022/04/04 05:35:15;;;;;;;0.40;0.10;;;27.70;24.20;;;;;;5111319;28;20035;-69
2022/04/04 05:37:45;;;;;;;0.40;0.10;;;27.60;24.10;;;;;;5111460;28;20071;-69
2022/04/04 05:40:11;;;;;;;1.00;0.10;;;27.60;24.10;;;;;;5111561;28;20445;-70
2022/04/04 05:42:36;;;;;;;0.63;0.10;;;27.70;24.20;;;;;;5111257;28;20040;-69
2022/04/04 05:45:02;;;;;;;0.60;0.17;;;27.70;24.10;;;;;;5111409;28;20039;-69
2022/04/04 05:47:28;;;;;;;0.30;0.05;;;27.70;24.10;;;;;;5110876;28;20036;-69
2022/04/04 05:49:54;;;;;;;1.65;0.40;;;27.80;24.10;;;;;;5111221;28;20156;-70
2022/04/04 05:52:23;;;;;;;0.63;0.13;;;27.80;24.00;;;;;;5106881;28;20043;-71
2022/04/04 05:55:04;;;;;;;0.65;0.10;;;27.80;24.00;;;;;;5105339;28;20031;-72
2022/04/04 05:57:32;;;;;;;1.77;0.10;;;27.80;24.00;;;;;;5101601;28;20348;-72
2022/04/04 05:59:58;;;;;;;0.38;0.10;;;27.90;24.00;;;;;;5104076;28;20086;-69
2022/04/04 06:02:27;;;;;;;0.75;0.20;;;27.90;24.00;;;;;;5107209;28;20036;-71
2022/04/04 06:04:53;;;;;;;0.70;0.10;;;27.90;24.00;;;;;;5081330;28;20032;-70
2022/04/04 06:07:21;;;;;;;0.38;0.20;;;27.90;24.00;;;;;;5096784;28;20024;-72
2022/04/04 06:09:50;;;;;;;0.68;0.10;;;27.90;24.00;;;;;;5092125;28;20200;-71
2022/04/04 06:12:16;;;;;;;1.13;0.10;;;27.90;24.00;;;;;;5093995;28;20148;-68
2022/04/04 06:14:41;;;;;;;0.47;0.10;;;28.00;24.00;;;;;;5100095;28;20558;-67
2022/04/04 06:17:07;;;;;;;0.35;0.10;;;28.00;24.00;;;;;;5100136;28;20511;-71
2022/04/04 06:19:38;;;;;;;0.73;0.10;;;28.00;23.90;;;;;;5100318;28;20040;-72
2022/04/04 06:22:05;;;;;;;0.70;0.10;;;28.00;23.90;;;;;;5102363;28;20051;-73
2022/04/04 06:24:31;;;;;;;1.55;0.22;;;28.10;23.90;;;;;;5104586;28;20034;-71
2022/04/04 06:26:59;;;;;;;1.05;0.10;;;28.10;23.90;;;;;;5107067;28;20156;-73
2022/04/04 06:29:24;;;;;;;0.65;0.38;;;28.10;23.90;;;;;;5104445;28;20081;-72
2022/04/04 06:31:51;;;;;;;1.15;0.10;;;28.10;23.90;;;;;;5101591;28;20480;-71
2022/04/04 06:34:18;;;;;;;1.27;0.20;;;28.10;23.90;;;;;;5093661;28;20054;-75
2022/04/04 06:36:44;;;;;;;1.70;0.40;;;28.00;24.00;;;;;;5094208;28;20047;-74
2022/04/04 06:39:10;;;;;;;2.45;0.60;;;27.60;24.40;;;;;;5091894;28;20055;-75
2022/04/04 06:41:36;;;;;;;3.47;1.20;;;27.00;24.60;;;;;;5089992;28;20404;-74
2022/04/04 06:44:03;;;;;;;3.63;1.00;;;26.30;25.10;;;;;;5107227;27;20487;-73
2022/04/04 06:46:29;;;;;;;4.93;1.20;;;25.70;26.00;;;;;;5095774;28;20039;-73
2022/04/04 06:48:54;;;;;;;3.20;0.90;;;25.20;26.50;;;;;;5109782;27;20032;-73
2022/04/04 06:51:20;;;;;;;3.72;0.85;;;24.70;26.90;;;;;;5094124;27;20036;-72
2022/04/04 06:53:46;;;;;;;3.05;0.90;;;24.40;27.40;;;;;;5088223;27;20464;-73
2022/04/04 06:56:13;;;;;;;3.42;1.15;;;24.10;27.90;;;;;;5092344;27;20421;-70
2022/04/04 06:58:39;;;;;;;2.60;0.45;;;23.90;28.30;;;;;;5093175;27;20047;-70
2022/04/04 07:01:04;;;;;;;2.78;0.60;;;23.70;28.70;;;;;;5088749;28;20038;-69
2022/04/04 07:03:30;;;;;;;6.53;0.57;;;23.60;29.00;;;;;;5093692;27;20075;-71
2022/04/04 07:05:56;;;;;;;5.63;0.45;;;23.50;29.20;;;;;;5085475;28;20085;-71
2022/04/04 07:08:22;;;;;;;2.33;0.43;;;23.50;29.40;;;;;;5090421;28;20057;-71
2022/04/04 07:10:48;;;;;;;3.30;0.50;;;23.50;29.60;;;;;;5088633;28;20853;-71
2022/04/04 07:13:15;;;;;;;5.00;0.77;;;23.40;29.80;;;;;;5091249;27;20156;-71
2022/04/04 07:15:41;;;;;;;2.10;0.50;;;23.40;30.00;;;;;;5104711;27;20071;-71
2022/04/04 07:18:07;;;;;;;3.70;0.30;;;23.40;30.00;;;;;;5087176;27;20055;-69
2022/04/04 07:20:33;;;;;;;3.45;0.40;;;23.50;30.10;;;;;;5081758;28;20555;-68
2022/04/04 07:23:00;;;;;;;1.13;0.35;;;23.70;29.80;;;;;;5092112;28;20755;-67
2022/04/04 07:25:27;;;;;;;1.63;0.30;;;24.00;29.40;;;;;;5106237;27;20066;-67
2022/04/04 07:27:53;;;;;;;3.28;0.35;;;24.30;29.00;;;;;;5094134;28;20036;-68
2022/04/04 07:30:19;;;;;;;5.40;0.60;;;24.60;29.10;;;;;;5086506;27;20051;-66
2022/04/04 07:32:47;;;;;;;3.90;0.52;;;24.50;29.30;;;;;;5091274;27;20575;-66
2022/04/04 07:35:18;;;;;;;3.20;0.40;;;24.30;29.60;;;;;;5087119;28;20062;-68
2022/04/04 07:37:45;;;;;;;1.45;0.40;;;24.20;29.90;;;;;;5088846;27;20055;-68
2022/04/04 07:40:14;;;;;;;2.15;0.43;;;24.10;30.20;;;;;;5105531;27;20035;-69
2022/04/04 07:42:42;;;;;;;1.95;0.40;;;24.10;30.10;;;;;;5093102;27;20043;-70
2022/04/04 07:45:10;;;;;;;1.70;0.25;;;24.30;29.90;;;;;;5108242;27;20055;-70
2022/04/04 07:47:37;;;;;;;2.38;0.40;;;24.50;29.50;;;;;;5094192;28;20062;-71
2022/04/04 07:50:04;;;;;;;1.85;0.30;;;24.70;29.20;;;;;;5094761;27;20039;-70
2022/04/04 07:52:30;;;;;;;1.83;0.30;;;24.90;28.90;;;;;;5090814;28;20052;-68
2022/04/04 07:54:55;;;;;;;4.10;0.22;;;25.00;28.60;;;;;;5090657;28;20039;-67
2022/04/04 07:57:22;;;;;;;1.60;0.60;;;25.10;28.50;;;;;;5094597;27;20032;-69
2022/04/04 07:59:49;;;;;;;2.10;0.20;;;25.10;28.30;;;;;;5085683;28;20052;-71
2022/04/04 08:02:15;;;;;;;1.20;0.30;;;25.10;28.30;;;;;;5088158;28;20048;-69
2022/04/04 08:04:41;;;;;;;1.13;0.20;;;25.10;28.30;;;;;;5092316;28;20404;-67
2022/04/04 08:07:06;;;;;;;1.23;0.20;;;25.00;28.30;;;;;;5086688;28;20065;-71
2022/04/04 08:09:32;;;;;;;3.45;0.30;;;24.90;28.40;;;;;;5090608;28;20405;-71
2022/04/04 08:11:58;;;;;;;1.75;0.20;;;24.80;28.50;;;;;;5090572;28;20063;-70
2022/04/04 08:14:24;;;;;;;1.83;0.20;;;24.60;28.70;;;;;;5094492;27;20570;-68
2022/04/04 08:16:50;;;;;;;1.02;0.25;;;24.40;28.70;;;;;;5107830;27;20085;-71
2022/04/04 08:19:17;;;;;;;2.25;0.20;;;24.30;28.80;;;;;;5096773;27;20040;-70
2022/04/04 08:21:44;;;;;;;1.60;0.20;;;24.10;29.00;;;;;;5088949;27;20751;-71
2022/04/04 08:24:11;;;;;;;2.47;0.38;;;23.90;29.10;;;;;;5090379;28;20063;-70
2022/04/04 08:26:39;;;;;;;0.50;0.17;;;23.80;29.20;;;;;;5089161;28;20114;-70
2022/04/04 08:29:06;;;;;;;1.83;0.20;;;23.70;29.30;;;;;;5092354;27;20062;-71
2022/04/04 08:31:31;;;;;;;1.80;0.20;;;23.70;29.40;;;;;;5091293;28;20058;-69
2022/04/04 08:33:57;;;;;;;1.10;0.20;;;23.70;29.30;;;;;;5090564;27;20051;-74
2022/04/04 08:36:23;;;;;;;1.23;0.13;;;23.80;29.20;;;;;;5092865;28;20043;-74
2022/04/04 08:38:48;;;;;;;0.65;0.17;;;24.00;29.10;;;;;;5093210;27;20039;-74
2022/04/04 08:41:14;;;;;;;1.13;0.35;;;24.20;28.90;;;;;;5091683;28;20031;-74
2022/04/04 08:43:43;;;;;;;0.90;0.20;;;24.40;29.30;;;;;;5094843;28;20040;-75
2022/04/04 08:46:10;;;;;;;1.60;0.30;;;24.70;28.50;;;;;;5093913;28;20052;-72
2022/04/04 08:48:38;;;;;;;2.28;0.20;;;24.90;28.20;;;;;;5094629;28;20032;-72
2022/04/04 08:51:07;;;;;;;1.85;0.20;;;25.10;28.10;;;;;;5087591;27;20043;-72
2022/04/04 08:53:34;;;;;;;1.10;0.22;;;25.20;28.00;;;;;;5092238;27;20380;-73
2022/04/04 08:56:01;;;;;;;2.72;0.20;;;25.20;27.80;;;;;;5089002;27;20054;-71
2022/04/04 08:58:27;;;;;;;1.13;0.10;;;25.30;27.80;;;;;;5089451;27;20046;-73
2022/04/04 09:00:52;;;;;;;0.65;0.20;;;25.30;27.80;;;;;;5090132;28;20040;-66
2022/04/04 09:03:21;;;;;;;0.68;0.20;;;25.20;27.80;;;;;;5090608;28;20051;-71
2022/04/04 09:05:53;;;;;;;1.98;0.10;;;25.20;27.80;;;;;;5091607;28;20051;-71
2022/04/04 09:08:20;;;;;;;2.22;0.10;;;25.20;27.90;;;;;;5088456;28;20036;-75
2022/04/04 09:10:46;;;;;;;2.65;0.22;;;25.10;27.90;;;;;;5088736;27;20031;-72
2022/04/04 09:13:17;;;;;;;0.70;0.20;;;25.00;28.00;;;;;;5092576;28;20090;-71
2022/04/04 09:24:01;;;;;;;0.68;0.20;;;24.90;28.00;;;;;;5067077;28;20719;-77
2022/04/04 09:29:17;;;;;;;1.10;0.20;;;24.40;28.50;;;;;;5076401;27;20332;-78
2022/04/04 09:32:05;;;;;;;1.20;0.20;;;24.30;28.50;;;;;;5074056;28;20047;-66
2022/04/04 09:37:31;;;;;;;1.27;0.10;;;24.40;28.60;;;;;;5077980;27;20457;-76
2022/04/04 09:40:20;;;;;;;0.57;0.10;;;24.40;28.50;;;;;;5089660;28;20919;-73
2022/04/04 09:45:30;;;;;;;0.77;0.10;;;24.50;28.60;;;;;;5021178;27;4091036;-76
2022/04/04 09:53:24;;;;;;;1.77;0.10;;;24.70;28.30;;;;;;5116026;27;20112;-73
2022/04/04 09:55:55;;;;;;;0.90;0.20;;;25.10;28.10;;;;;;5095326;28;20040;-67
2022/04/04 09:58:23;;;;;;;1.55;0.10;;;25.20;28.00;;;;;;5080127;28;20594;-72
2022/04/04 10:00:49;;;;;;;1.90;0.10;;;25.20;27.90;;;;;;5073514;28;20040;-71
2022/04/04 10:03:17;;;;;;;0.28;0.05;;;25.30;27.90;;;;;;5074510;28;20047;-72
2022/04/04 10:05:47;;;;;;;1.08;0.13;;;25.30;27.80;;;;;;5073340;28;20081;-71
2022/04/04 10:08:15;;;;;;;1.48;0.10;;;25.40;27.90;;;;;;5071056;28;20784;-72
2022/04/04 10:10:42;;;;;;;0.90;0.10;;;25.30;27.90;;;;;;5074738;28;20027;-71
2022/04/04 10:13:09;;;;;;;0.80;0.10;;;25.30;28.00;;;;;;5076543;28;20031;-71
2022/04/04 10:15:36;;;;;;;1.02;0.10;;;25.20;28.10;;;;;;5093955;28;20036;-71
2022/04/04 10:18:02;;;;;;;1.55;0.10;;;25.20;28.20;;;;;;5094203;28;20028;-72
2022/04/04 10:20:28;;;;;;;0.70;0.10;;;25.10;28.20;;;;;;5078251;28;20726;-73
2022/04/04 10:22:55;;;;;;;3.47;0.30;;;25.00;28.30;;;;;;5076515;28;20044;-76
2022/04/04 10:25:27;;;;;;;8.68;0.20;;;24.80;29.00;;;;;;5077045;28;20039;-78
2022/04/04 10:27:56;;;;;;;1.40;0.10;;;24.70;29.40;;;;;;5074112;28;20496;-79
2022/04/04 10:30:32;;;;;;;5.43;0.32;;;24.60;29.50;;;;;;5075974;28;20048;-80
2022/04/04 10:32:58;;;;;;;2.40;0.55;;;24.60;29.50;;;;;;5080692;28;20035;-78
2022/04/04 10:35:26;;;;;;;1.08;0.00;;;24.60;29.40;;;;;;5091814;28;20048;-76
2022/04/04 10:37:53;;;;;;;3.83;0.10;;;24.70;29.40;;;;;;5076769;28;20048;-75
2022/04/04 10:40:23;;;;;;;1.10;0.20;;;24.80;29.30;;;;;;5076558;28;20046;-80
2022/04/04 10:43:10;;;;;;;1.48;0.10;;;24.80;29.20;;;;;;5073071;28;20149;-77
2022/04/04 10:46:00;;;;;;;2.97;0.13;;;25.00;29.10;;;;;;5072820;28;20060;-71
2022/04/04 10:48:36;;;;;;;1.30;0.10;;;25.00;28.90;;;;;;5074735;28;20047;-74
2022/04/04 10:51:09;;;;;;;0.80;0.10;;;25.10;28.80;;;;;;5073560;28;20189;-71
2022/04/04 10:53:38;;;;;;;2.55;0.20;;;25.20;28.70;;;;;;5090314;28;20547;-73
2022/04/04 10:56:06;;;;;;;3.55;0.10;;;25.30;28.70;;;;;;5078056;28;20047;-71
2022/04/04 10:58:31;;;;;;;0.82;0.10;;;25.30;28.60;;;;;;5074099;28;20437;-71
2022/04/04 11:03:41;;;;;;;1.83;0.10;;;25.20;29.50;;;;;;5091953;27;20768;-73
2022/04/04 11:14:42;;;;;;;0.70;0.10;;;24.30;32.40;;;;;;5100242;27;20449;-73
2022/04/04 11:19:51;;;;;;;0.75;0.10;;;24.10;33.00;;;;;;5108062;27;20439;-73
2022/04/04 11:22:21;;;;;;;1.42;0.10;;;23.90;33.50;;;;;;5113422;28;20040;-73
2022/04/04 11:25:11;;;;;;;1.42;0.10;;;23.80;33.90;;;;;;5097946;28;20063;-73
2022/04/04 11:27:40;;;;;;;;;;;23.70;34.90;;;;;;5094912;28;20036;-69
2022/04/04 11:32:47;;;;;;;1.02;0.20;;;23.70;34.20;;;;;;5058535;28;20373;-72
2022/04/04 11:37:55;;;;;;;3.40;0.10;;;23.60;34.90;;;;;;5012304;27;4066676;-71
2022/04/04 11:40:29;;;;;;;4.50;0.20;;;23.50;35.30;;;;;;5133593;27;20291;-71
2022/04/04 11:42:56;;;;;;;3.72;0.40;;;23.50;35.40;;;;;;5147089;27;20033;-69
2022/04/04 11:45:25;;;;;;;3.22;0.10;;;23.50;35.40;;;;;;5145351;27;20461;-69
2022/04/04 11:47:54;;;;;;;2.70;0.20;;;23.50;35.60;;;;;;5144396;27;20373;-71
2022/04/04 11:50:23;;;;;;;1.67;0.10;;;23.50;35.60;;;;;;5140291;27;20611;-73
2022/04/04 11:52:52;;;;;;;2.97;0.10;;;23.50;35.60;;;;;;5142430;27;20446;-77
2022/04/04 11:55:20;;;;;;;2.72;0.10;;;23.50;35.70;;;;;;5140960;27;20616;-74
2022/04/04 11:57:49;;;;;;;1.13;0.10;;;23.50;35.80;;;;;;5140396;27;20591;-70
2022/04/04 12:00:27;;;;;;;1.05;0.10;;;23.60;35.60;;;;;;5137083;27;20046;-69
2022/04/04 12:02:53;;;;;;;2.00;0.20;;;23.60;35.80;;;;;;5158585;27;20701;-71
2022/04/04 12:05:23;;;;;;;3.17;0.10;;;23.60;36.50;;;;;;5140031;27;20125;-74
2022/04/04 12:07:50;;;;;;;2.78;0.10;;;23.70;35.70;;;;;;5156485;27;20042;-75
2022/04/04 12:10:31;;;;;;;2.97;0.10;;;23.60;35.60;;;;;;5136348;27;20070;-73
2022/04/04 12:13:02;;;;;;;1.13;0.20;;;23.60;35.90;;;;;;5130100;27;20053;-76
2022/04/04 12:15:31;;;;;;;0.45;0.05;;;23.60;36.00;;;;;;5132204;27;20142;-75
2022/04/04 12:17:58;;;;;;;1.70;0.10;;;23.50;36.30;;;;;;5133763;27;20469;-75
2022/04/04 12:20:24;;;;;;;2.45;0.47;;;23.40;36.50;;;;;;5149658;27;20475;-75
2022/04/04 12:25:36;;;;;;;2.85;0.10;;;23.40;36.50;;;;;;5137409;27;20034;-73
2022/04/04 12:28:03;;;;;;;2.55;0.30;;;23.30;36.70;;;;;;5147771;27;20045;-73
2022/04/04 12:30:32;;;;;;;4.03;0.10;;;23.30;36.70;;;;;;5152993;27;20031;-74
2022/04/04 12:33:14;;;;;;;2.08;0.25;;;23.30;36.80;;;;;;5134848;27;20030;-72
2022/04/04 12:35:44;;;;;;;1.17;0.10;;;23.30;37.00;;;;;;5157360;27;20102;-72
2022/04/04 12:38:21;;;;;;;2.20;0.15;;;23.30;37.20;;;;;;5137475;27;20043;-73
2022/04/04 12:44:01;;;;;;;1.60;0.08;;;23.30;37.40;;;;;;5093583;27;20868;-73
2022/04/04 12:46:32;;;;;;;1.92;0.30;;;23.20;37.30;;;;;;5090634;28;20146;-75
2022/04/04 12:49:19;;;;;;;6.13;0.20;;;23.30;37.40;;;;;;5128024;27;20148;-74
2022/04/04 12:51:55;;;;;;;3.00;0.20;;;23.20;37.30;;;;;;5088677;28;20687;-69
2022/04/04 12:54:41;;;;;;;4.47;0.40;;;23.30;37.40;;;;;;5091302;28;20089;-73
2022/04/04 12:57:10;;;;;;;1.05;0.10;;;23.30;37.30;;;;;;5089845;28;20477;-71
2022/04/04 12:59:54;;;;;;;1.02;0.00;;;23.30;37.40;;;;;;5084668;28;20120;-75
2022/04/04 13:02:29;;;;;;;4.88;0.45;;;23.30;37.50;;;;;;5083384;28;20042;-73
2022/04/04 13:05:12;;;;;;;7.35;0.20;;;23.40;37.60;;;;;;5127722;27;20035;-72
2022/04/04 13:07:47;;;;;;;3.00;0.25;;;23.40;37.60;;;;;;5119678;27;20044;-74
2022/04/04 13:10:13;;;;;;;8.98;0.10;;;23.30;37.50;;;;;;5093307;28;20032;-71
2022/04/04 13:12:41;;;;;;;1.58;0.00;;;23.30;37.40;;;;;;5084537;28;20043;-73
2022/04/04 13:15:08;;;;;;;1.90;0.10;;;23.30;37.30;;;;;;5095224;28;20142;-70
2022/04/04 13:20:14;;;;;;;1.17;0.10;;;23.30;37.20;;;;;;5081199;28;20943;-74
2022/04/04 13:22:41;;;;;;;1.27;0.00;;;23.20;36.90;;;;;;5080240;28;20040;-72
2022/04/04 13:25:07;;;;;;;1.63;0.00;;;23.20;36.80;;;;;;5081092;28;20040;-73
2022/04/04 13:27:34;;;;;;;0.95;0.00;;;23.20;36.90;;;;;;5080080;28;20034;-71
2022/04/04 13:30:00;;;;;;;0.85;0.00;;;23.20;36.80;;;;;;5081887;28;20032;-72
2022/04/04 13:32:25;;;;;;;0.68;0.10;;;23.20;36.90;;;;;;5079278;28;20085;-72
2022/04/04 13:34:51;;;;;;;0.25;0.17;;;23.20;36.90;;;;;;5082553;28;20484;-72
2022/04/04 13:37:18;;;;;;;2.45;0.00;;;23.20;36.80;;;;;;5084887;28;20123;-71
2022/04/04 13:39:43;;;;;;;0.93;0.00;;;23.20;36.80;;;;;;5092134;28;20032;-73
2022/04/04 13:42:10;;;;;;;0.52;0.00;;;23.20;36.80;;;;;;5083895;28;20089;-73
2022/04/04 13:44:36;;;;;;;0.28;0.00;;;23.20;36.80;;;;;;5082319;28;20032;-72